Time;durP1;ratioP1;P1;durP2;ratioP2;P2;SDS_P1;SDS_P2;PMS_P1;PMS_P2;Temp;Humidity;BMP_temperature;BMP_pressure;BME280_temperature;BME280_humidity;BME280_pressure;Samples;Min_cycle;Max_cycle;Signal;HPM_P1;HPM_P2
2022/02/05 00:01:33;;;;;;;17.73;11.65;;;;;;;3.75;48.40;99561.50;3401677;29;20130;-74
2022/02/05 00:03:27;;;;;;;20.13;11.93;;;;;;;3.71;48.29;99560.13;3402280;29;20518;-75
2022/02/05 00:05:10;;;;;;;20.30;11.40;;;;;;;3.72;48.38;99561.81;3401584;29;20126;-76
2022/02/05 00:06:53;;;;;;;24.23;12.48;;;;;;;3.67;48.45;99556.19;3398954;29;20067;-75
2022/02/05 00:10:54;;;;;;;22.92;13.48;;;;;;;3.61;48.57;99567.31;3402573;29;20114;-76
2022/02/05 00:14:24;;;;;;;19.38;12.02;;;;;;;3.57;48.62;99561.53;3401333;29;20047;-75
2022/02/05 00:42:07;;;;;;;22.55;13.07;;;;;;;3.55;48.50;99573.19;3401909;29;20044;-76
2022/02/05 00:44:00;;;;;;;21.05;12.95;;;;;;;3.58;48.34;99575.53;3402003;29;20047;-74
2022/02/05 00:45:45;;;;;;;19.13;11.75;;;;;;;3.59;48.51;99571.91;3402085;29;20048;-74
2022/02/05 00:47:26;;;;;;;24.77;14.07;;;;;;;3.56;48.39;99572.22;3402145;29;20138;-75
2022/02/05 00:49:07;;;;;;;22.20;12.45;;;;;;;3.59;48.47;99574.53;3402157;28;20134;-77
2022/02/05 00:50:56;;;;;;;22.73;12.32;;;;;;;3.59;48.47;99566.63;3401437;29;20044;-73
2022/02/05 00:52:37;;;;;;;26.25;13.27;;;;;;;3.59;48.55;99571.91;3401888;29;20065;-75
2022/02/05 00:54:22;;;;;;;25.90;12.30;;;;;;;3.56;48.56;99559.03;3401740;29;20062;-76
2022/02/05 00:56:16;;;;;;;25.00;15.05;;;;;;;3.57;48.41;99572.06;3401872;29;20371;-75
2022/02/05 00:58:02;;;;;;;27.85;13.57;;;;;;;3.60;48.47;99574.41;3402285;29;20523;-76
2022/02/05 00:59:43;;;;;;;24.55;14.52;;;;;;;3.59;48.36;99561.34;3401979;29;20135;-76
2022/02/05 01:01:23;;;;;;;24.77;13.15;;;;;;;3.62;48.66;99576.88;3400760;29;20039;-75
2022/02/05 01:03:04;;;;;;;22.58;12.82;;;;;;;3.63;48.49;99566.19;3401004;29;20043;-74
2022/02/05 01:04:45;;;;;;;27.98;14.55;;;;;;;3.64;48.50;99564.38;3401943;29;20040;-77
2022/02/05 01:06:26;;;;;;;28.08;14.27;;;;;;;3.64;48.54;99556.47;3400742;29;20047;-76
2022/02/05 01:08:06;;;;;;;30.48;14.75;;;;;;;3.64;48.41;99559.94;3401474;29;20047;-77
2022/02/05 01:09:49;;;;;;;27.48;13.85;;;;;;;3.64;48.50;99559.09;3401384;29;20160;-75
2022/02/05 01:11:29;;;;;;;;;;;;;;;3.74;48.51;99557.19;3400683;29;20043;-74
2022/02/05 01:13:12;;;;;;;24.55;13.65;;;;;;;3.66;48.29;99552.69;3401831;29;19929;-77
2022/02/05 01:14:56;;;;;;;28.77;15.45;;;;;;;3.60;48.39;99552.50;3402054;29;20048;-75
2022/02/05 01:18:22;;;;;;;28.65;14.27;;;;;;;3.56;48.35;99551.94;3401874;29;20554;-76
2022/02/05 01:22:04;;;;;;;31.15;18.25;;;;;;;3.50;48.49;99544.66;3406736;29;20103;-77
2022/02/05 01:23:50;;;;;;;22.25;13.95;;;;;;;3.52;48.44;99555.06;3401435;29;20513;-76
2022/02/05 01:25:36;;;;;;;24.88;14.13;;;;;;;3.49;48.50;99545.66;3402740;29;20047;-75
2022/02/05 01:27:43;;;;;;;31.70;16.70;;;;;;;3.49;48.54;99545.66;3401090;29;20051;-74
2022/02/05 01:29:43;;;;;;;19.77;12.18;;;;;;;3.50;48.43;99550.75;3400957;29;20071;-75
2022/02/05 01:31:28;;;;;;;22.92;12.70;;;;;;;3.49;48.36;99545.66;3399920;29;20224;-76
2022/02/05 01:35:18;;;;;;;24.63;13.25;;;;;;;3.47;48.58;99558.16;3400572;29;20405;-74
2022/02/05 01:57:57;;;;;;;25.80;13.35;;;;;;;3.32;48.84;99549.94;3398666;28;20048;-72
2022/02/05 01:59:53;;;;;;;24.70;15.05;;;;;;;3.34;48.92;99553.25;3400565;29;20051;-72
2022/02/05 02:05:38;;;;;;;22.65;12.88;;;;;;;3.41;49.00;99546.41;3401529;29;20082;-74
2022/02/05 02:09:47;;;;;;;23.42;13.93;;;;;;;3.34;49.01;99524.28;3400611;29;20048;-75
2022/02/05 02:11:35;;;;;;;23.45;13.07;;;;;;;3.42;48.81;99537.53;3400083;29;20048;-73
2022/02/05 02:13:42;;;;;;;23.85;15.90;;;;;;;3.43;48.79;99533.94;3387676;29;20048;-75
2022/02/05 02:15:28;;;;;;;26.92;14.57;;;;;;;3.43;48.65;99536.56;3404090;29;20066;-75
2022/02/05 02:19:15;;;;;;;21.17;13.70;;;;;;;3.42;48.85;99537.53;3403839;29;20048;-75
2022/02/05 02:27:10;;;;;;;20.35;13.32;;;;;;;3.45;48.93;99524.03;3401745;29;20488;-71
2022/02/05 02:29:09;;;;;;;23.75;14.43;;;;;;;3.47;49.06;99516.00;3402392;29;20208;-75
2022/02/05 02:31:04;;;;;;;26.10;14.30;;;;;;;3.43;48.89;99515.50;3402151;29;20079;-72
2022/02/05 02:32:50;;;;;;;24.48;15.30;;;;;;;3.39;48.98;99516.75;3402533;29;20143;-72
2022/02/05 02:34:36;;;;;;;25.95;16.27;;;;;;;3.38;48.80;99516.91;3403795;29;20531;-73
2022/02/05 02:37:02;;;;;;;27.17;15.10;;;;;;;3.35;49.04;99514.56;3403622;29;20059;-73
2022/02/05 02:38:21;;;;;;;23.83;14.23;;;;;;;3.38;49.06;99512.50;3395642;29;20131;-71
2022/02/05 02:40:19;;;;;;;22.10;14.43;;;;;;;3.41;49.05;99514.00;3402096;29;20107;-72
2022/02/05 02:42:08;;;;;;;22.75;15.02;;;;;;;3.44;48.82;99513.69;3404259;29;20036;-73
2022/02/05 02:43:49;;;;;;;31.13;16.85;;;;;;;3.42;48.86;99510.38;3403930;29;20102;-73
2022/02/05 02:45:29;;;;;;;24.63;15.23;;;;;;;3.46;48.96;99509.09;3404125;29;20040;-73
2022/02/05 02:47:10;;;;;;;25.00;13.88;;;;;;;3.46;49.21;99509.09;3403862;29;20059;-72
2022/02/05 02:48:51;;;;;;;25.30;13.43;;;;;;;3.48;49.02;99517.63;3403904;29;20537;-73
2022/02/05 02:56:29;;;;;;;24.60;14.45;;;;;;;3.48;48.87;99507.97;3403238;29;20095;-74
2022/02/05 02:58:22;;;;;;;28.55;15.93;;;;;;;3.49;48.86;99496.44;3403192;29;20048;-74
2022/02/05 03:00:07;;;;;;;33.00;15.63;;;;;;;3.49;48.65;99499.06;3389057;29;20500;-75
2022/02/05 03:01:48;;;;;;;21.73;13.88;;;;;;;3.47;48.91;99501.00;3400754;29;20043;-73
2022/02/05 03:03:29;;;;;;;23.98;13.50;;;;;;;3.48;48.98;99507.09;3403257;28;20055;-74
2022/02/05 03:05:09;;;;;;;24.13;14.32;;;;;;;3.48;48.98;99504.47;3402391;29;20136;-75
2022/02/05 03:06:50;;;;;;;28.23;15.20;;;;;;;3.49;48.95;99499.06;3403121;29;20051;-74
2022/02/05 03:08:31;;;;;;;27.00;15.63;;;;;;;3.49;48.97;99508.78;3401648;29;20043;-75
2022/02/05 03:10:11;;;;;;;22.42;14.45;;;;;;;3.39;48.94;99487.78;3399107;29;20140;-75
2022/02/05 03:11:52;;;;;;;24.92;15.63;;;;;;;3.48;49.06;99501.84;3402492;29;20487;-76
2022/02/05 03:13:33;;;;;;;26.42;15.43;;;;;;;3.44;48.89;99492.59;3403126;29;20054;-74
2022/02/05 03:15:18;;;;;;;26.00;14.68;;;;;;;3.50;48.75;99500.69;3401907;28;20130;-76
2022/02/05 03:17:05;;;;;;;25.70;15.25;;;;;;;3.48;48.86;99497.41;3402451;29;20214;-73
2022/02/05 03:19:01;;;;;;;24.73;15.13;;;;;;;3.53;48.50;99509.28;3403125;29;20043;-73
2022/02/05 03:20:41;;;;;;;26.85;14.93;;;;;;;3.55;48.71;99517.88;3402866;29;20036;-73
2022/02/05 03:22:25;;;;;;;25.55;15.02;;;;;;;3.53;48.83;99504.84;3403257;29;20058;-73
2022/02/05 03:24:06;;;;;;;25.67;16.60;;;;;;;3.48;48.72;99505.31;3402034;29;20063;-74
2022/02/05 03:25:47;;;;;;;27.60;15.52;;;;;;;3.49;48.77;99504.31;3403033;29;20047;-75
2022/02/05 03:27:29;;;;;;;;;;;;;;;3.60;48.79;99511.16;3403551;29;20047;-77
2022/02/05 03:29:12;;;;;;;25.42;14.35;;;;;;;3.53;48.68;99511.91;3402778;28;20287;-75
2022/02/05 03:30:52;;;;;;;24.77;15.10;;;;;;;3.52;48.75;99512.91;3402840;29;20036;-74
2022/02/05 03:32:33;;;;;;;23.33;14.88;;;;;;;3.52;48.88;99513.72;3403113;29;20523;-72
2022/02/05 03:34:14;;;;;;;27.25;14.57;;;;;;;3.52;49.03;99524.28;3402975;29;20063;-75
2022/02/05 03:35:55;;;;;;;25.02;15.57;;;;;;;3.49;49.01;99514.88;3403064;29;20143;-73
2022/02/05 03:37:35;;;;;;;28.10;15.27;;;;;;;3.48;49.04;99518.50;3403436;29;20078;-74
2022/02/05 03:39:16;;;;;;;30.10;15.80;;;;;;;3.43;49.24;99510.22;3403401;29;20135;-75
2022/02/05 03:40:57;;;;;;;26.05;15.27;;;;;;;3.45;48.84;99517.94;3403094;29;20035;-75
2022/02/05 03:42:38;;;;;;;25.92;15.15;;;;;;;3.49;49.08;99519.31;3403859;29;20158;-78
2022/02/05 03:44:19;;;;;;;26.17;14.35;;;;;;;3.53;49.00;99518.00;3403573;29;20044;-75
2022/02/05 03:45:59;;;;;;;29.92;16.05;;;;;;;3.54;48.90;99524.09;3401841;29;20091;-76
2022/02/05 03:47:40;;;;;;;25.05;14.57;;;;;;;3.55;48.74;99521.31;3399240;29;20043;-76
2022/02/05 03:49:22;;;;;;;23.75;14.40;;;;;;;3.59;48.99;99517.41;3398794;29;20048;-76
2022/02/05 03:51:03;;;;;;;22.95;14.05;;;;;;;3.63;48.79;99515.28;3399109;29;20035;-76
2022/02/05 03:52:44;;;;;;;25.55;14.25;;;;;;;3.68;48.66;99519.09;3402887;29;20534;-76
2022/02/05 03:54:28;;;;;;;29.50;15.13;;;;;;;3.72;48.77;99519.66;3402958;29;20114;-76
2022/02/05 03:56:09;;;;;;;30.75;14.43;;;;;;;3.73;48.64;99518.66;3402723;29;20080;-76
2022/02/05 03:57:50;;;;;;;29.20;13.88;;;;;;;3.74;48.71;99519.47;3401667;29;20063;-75
2022/02/05 03:59:30;;;;;;;28.67;15.95;;;;;;;3.74;48.72;99519.47;3402510;29;20070;-76
2022/02/05 04:01:12;;;;;;;26.05;14.63;;;;;;;3.70;48.75;99521.59;3402275;29;20047;-75
2022/02/05 04:02:53;;;;;;;29.23;16.35;;;;;;;3.71;48.47;99525.88;3402950;28;20103;-76
2022/02/05 04:04:34;;;;;;;27.98;15.27;;;;;;;3.69;48.45;99518.16;3403104;29;20071;-77
2022/02/05 04:06:15;;;;;;;27.08;13.65;;;;;;;3.70;48.30;99527.69;3403659;29;20051;-75
2022/02/05 04:07:56;;;;;;;33.03;16.38;;;;;;;3.67;48.43;99533.28;3402751;28;20096;-75
2022/02/05 04:09:41;;;;;;;25.95;15.40;;;;;;;3.68;48.26;99518.28;3402825;29;20054;-74
2022/02/05 04:17:12;;;;;;;25.13;14.82;;;;;;;3.64;48.23;99522.19;3402429;29;20463;-73
2022/02/05 04:18:55;;;;;;;27.90;16.60;;;;;;;3.61;48.24;99515.44;3401969;29;20195;-73
2022/02/05 04:20:38;;;;;;;30.40;16.83;;;;;;;3.58;48.55;99512.28;3401921;28;20511;-76
2022/02/05 04:22:19;;;;;;;29.90;15.18;;;;;;;3.58;48.46;99512.28;3401241;29;20407;-74
2022/02/05 04:24:03;;;;;;;30.42;15.88;;;;;;;3.58;48.36;99512.28;3402179;29;20036;-74
2022/02/05 04:25:46;;;;;;;29.92;16.10;;;;;;;3.54;48.35;99510.94;3402317;29;20419;-74
2022/02/05 04:27:27;;;;;;;28.77;15.68;;;;;;;3.53;48.60;99511.91;3401161;29;20511;-77
2022/02/05 04:29:09;;;;;;;28.45;16.00;;;;;;;3.56;48.16;99512.44;3402078;29;20499;-77
2022/02/05 04:30:49;;;;;;;28.30;15.00;;;;;;;3.54;48.20;99503.88;3401410;29;20419;-74
2022/02/05 04:32:30;;;;;;;32.33;17.42;;;;;;;3.59;48.47;99513.94;3401177;29;20043;-75
2022/02/05 04:34:11;;;;;;;25.83;15.32;;;;;;;3.61;48.11;99512.78;3401961;29;20043;-75
2022/02/05 04:35:52;;;;;;;29.27;14.65;;;;;;;3.61;48.17;99507.53;3402108;29;20051;-74
2022/02/05 04:37:33;;;;;;;26.50;14.82;;;;;;;3.66;48.08;99517.59;3402619;29;20043;-73
2022/02/05 04:39:17;;;;;;;32.88;16.70;;;;;;;3.66;48.32;99515.78;3401729;29;20088;-73
2022/02/05 04:42:47;;;;;;;28.70;15.68;;;;;;;3.66;48.53;99521.06;3403848;29;20047;-73
2022/02/05 04:59:46;;;;;;;;;;;;;;;3.68;48.47;99527.00;3403921;29;20051;-74
2022/02/05 05:04:28;;;;;;;24.33;13.00;;;;;;;3.57;48.72;99529.91;3403118;29;20428;-74
2022/02/05 05:13:31;;;;;;;28.88;14.50;;;;;;;3.11;48.99;99528.38;3387876;29;20208;-75
2022/02/05 05:20:54;;;;;;;26.98;14.07;;;;;;;2.97;49.32;99517.38;3395089;29;20039;-77
2022/02/05 05:22:35;;;;;;;27.15;15.02;;;;;;;2.99;49.25;99518.03;3404186;29;20048;-76
2022/02/05 05:24:16;;;;;;;25.17;15.27;;;;;;;3.01;49.38;99516.09;3408026;29;20057;-78
2022/02/05 05:25:57;;;;;;;31.55;15.15;;;;;;;2.99;49.44;99512.78;3402816;29;20576;-77
2022/02/05 05:27:37;;;;;;;27.40;14.02;;;;;;;3.02;49.62;99519.56;3400251;29;20052;-76
2022/02/05 05:29:19;;;;;;;22.92;14.95;;;;;;;2.94;49.71;99509.78;3402719;29;20074;-81
2022/02/05 05:31:00;;;;;;;31.33;14.45;;;;;;;3.03;49.63;99522.03;3400990;29;20431;-77
2022/02/05 05:32:40;;;;;;;23.98;14.52;;;;;;;3.02;49.85;99517.78;3401685;29;20044;-77
2022/02/05 05:34:21;;;;;;;26.95;14.65;;;;;;;3.04;49.69;99518.41;3402180;29;20078;-76
2022/02/05 05:36:02;;;;;;;24.83;14.10;;;;;;;3.04;49.85;99515.78;3402101;29;20044;-75
2022/02/05 05:37:48;;;;;;;26.95;13.98;;;;;;;3.05;49.87;99522.72;3402129;29;20052;-76
2022/02/05 05:39:31;;;;;;;25.10;13.93;;;;;;;3.03;49.80;99511.50;3401708;29;20130;-77
2022/02/05 05:41:12;;;;;;;27.73;15.13;;;;;;;3.01;50.04;99505.56;3402333;29;20036;-79
2022/02/05 05:43:00;;;;;;;24.58;14.48;;;;;;;3.08;50.00;99507.63;3401598;29;20102;-76
2022/02/05 05:46:33;;;;;;;30.30;14.27;;;;;;;3.05;49.94;99501.66;3401367;29;20126;-77
2022/02/05 05:48:16;;;;;;;27.42;14.90;;;;;;;3.04;49.99;99500.00;3401459;28;20094;-74
2022/02/05 05:50:01;;;;;;;30.63;15.15;;;;;;;3.09;50.06;99501.34;3400479;29;20087;-75
2022/02/05 05:51:41;;;;;;;24.55;14.27;;;;;;;3.10;50.01;99503.84;3400980;29;20048;-76
2022/02/05 05:53:22;;;;;;;26.52;14.90;;;;;;;3.12;50.02;99501.06;3400468;29;20142;-74
2022/02/05 05:55:03;;;;;;;25.95;14.85;;;;;;;3.16;50.08;99497.16;3399342;29;20135;-74
2022/02/05 05:56:46;;;;;;;28.67;14.90;;;;;;;3.17;49.89;99493.53;3399602;29;20046;-75
2022/02/05 05:58:26;;;;;;;;;;;;;;;3.30;49.85;99501.84;3410789;29;20067;-74
2022/02/05 06:00:08;;;;;;;26.25;14.15;;;;;;;3.23;49.73;99498.19;3416975;29;19898;-74
2022/02/05 06:01:49;;;;;;;28.20;15.63;;;;;;;3.22;49.77;99492.09;3400195;29;20048;-74
2022/02/05 06:03:31;;;;;;;28.25;14.88;;;;;;;3.21;49.93;99487.00;3404969;29;20054;-76
2022/02/05 06:05:13;;;;;;;26.98;15.50;;;;;;;3.22;49.96;99488.63;3404199;29;20042;-75
2022/02/05 06:06:54;;;;;;;26.30;15.50;;;;;;;3.24;49.85;99494.56;3387768;29;20052;-75
2022/02/05 06:08:35;;;;;;;27.73;15.95;;;;;;;3.21;49.74;99497.53;3394542;29;20158;-75
2022/02/05 06:10:16;;;;;;;24.95;14.13;;;;;;;3.22;49.83;99492.09;3401528;29;20044;-76
2022/02/05 06:11:56;;;;;;;25.92;13.70;;;;;;;3.22;49.49;99491.25;3400074;29;20175;-75
2022/02/05 06:13:37;;;;;;;29.85;15.15;;;;;;;3.22;49.66;99486.00;3401167;29;20059;-75
2022/02/05 06:15:18;;;;;;;26.80;14.68;;;;;;;3.21;49.71;99484.34;3400176;29;20507;-74
2022/02/05 06:17:05;;;;;;;28.80;14.60;;;;;;;3.22;49.55;99480.72;3400893;29;20106;-75
2022/02/05 06:18:46;;;;;;;29.50;15.43;;;;;;;3.23;49.52;99482.41;3401682;29;20039;-77
2022/02/05 06:20:27;;;;;;;23.33;14.18;;;;;;;3.27;49.40;99483.72;3399832;29;20147;-74
2022/02/05 06:22:07;;;;;;;28.75;15.88;;;;;;;3.23;49.53;99474.50;3400783;29;20543;-75
2022/02/05 06:23:48;;;;;;;26.35;14.15;;;;;;;3.26;49.60;99482.09;3401393;29;20063;-76
2022/02/05 06:25:31;;;;;;;27.15;14.32;;;;;;;3.33;49.50;99484.91;3401190;29;20039;-74
2022/02/05 06:27:12;;;;;;;28.42;15.65;;;;;;;3.33;49.60;99483.13;3401346;29;20043;-74
2022/02/05 06:28:53;;;;;;;27.55;15.85;;;;;;;3.36;49.26;99488.09;3399776;29;20151;-75
2022/02/05 06:30:33;;;;;;;23.20;14.35;;;;;;;3.37;49.43;99492.38;3400545;29;20043;-72
2022/02/05 06:32:17;;;;;;;24.80;13.80;;;;;;;3.42;49.55;99494.56;3400991;29;20032;-77
2022/02/05 06:33:58;;;;;;;24.80;14.73;;;;;;;3.44;49.30;99492.59;3400654;29;20151;-76
2022/02/05 06:35:38;;;;;;;28.73;16.30;;;;;;;3.43;49.26;99486.50;3397341;29;20036;-76
2022/02/05 06:37:19;;;;;;;26.77;14.75;;;;;;;3.44;49.30;99488.16;3385346;29;20071;-76
2022/02/05 06:38:59;;;;;;;29.75;15.57;;;;;;;3.48;49.12;99496.56;3400514;29;20418;-75
2022/02/05 06:40:40;;;;;;;24.80;14.75;;;;;;;3.47;48.88;99501.00;3404231;29;20051;-75
2022/02/05 06:42:21;;;;;;;29.00;16.23;;;;;;;3.47;48.98;99493.09;3403661;29;20047;-76
2022/02/05 06:44:01;;;;;;;25.73;15.73;;;;;;;3.46;48.96;99499.38;3388576;29;20047;-76
2022/02/05 06:45:42;;;;;;;28.58;14.30;;;;;;;3.41;49.14;99488.47;3398675;29;20418;-76
2022/02/05 06:47:23;;;;;;;28.83;14.30;;;;;;;3.43;49.14;99490.94;3401112;29;20111;-75
2022/02/05 06:49:04;;;;;;;34.75;17.50;;;;;;;3.46;49.28;99493.28;3400978;29;20047;-76
2022/02/05 06:50:44;;;;;;;27.85;16.85;;;;;;;3.42;49.08;99495.38;3387052;29;20044;-77
2022/02/05 06:52:25;;;;;;;30.30;15.13;;;;;;;3.46;48.88;99493.28;3397171;29;20043;-76
2022/02/05 06:54:06;;;;;;;32.67;15.63;;;;;;;3.44;49.00;99496.06;3400902;29;20040;-76
2022/02/05 06:55:47;;;;;;;23.95;14.15;;;;;;;3.46;49.10;99485.38;3401395;29;20467;-75
2022/02/05 06:57:27;;;;;;;25.85;14.48;;;;;;;3.46;48.95;99483.56;3400493;29;20039;-75
2022/02/05 06:59:08;;;;;;;29.13;16.67;;;;;;;3.51;49.14;99488.34;3389012;29;20095;-76
2022/02/05 07:00:49;;;;;;;25.77;14.43;;;;;;;3.45;48.63;99474.00;3400242;29;20131;-78
2022/02/05 07:02:30;;;;;;;27.67;15.68;;;;;;;3.47;48.89;99473.84;3388893;29;20071;-75
2022/02/05 07:04:10;;;;;;;28.80;15.50;;;;;;;3.47;48.73;99469.41;3400254;29;20121;-75
2022/02/05 07:05:51;;;;;;;31.27;15.65;;;;;;;3.55;48.84;99467.81;3403108;29;20047;-77
2022/02/05 07:07:32;;;;;;;24.38;14.32;;;;;;;3.55;48.85;99476.53;3402428;29;20043;-76
2022/02/05 07:09:13;;;;;;;27.00;14.07;;;;;;;3.53;48.97;99467.13;3386092;29;20050;-75
2022/02/05 07:10:54;;;;;;;26.70;14.93;;;;;;;3.58;48.72;99475.41;3397064;29;20059;-74
2022/02/05 07:12:43;;;;;;;26.52;14.95;;;;;;;3.54;48.86;99479.31;3399598;29;20051;-77
2022/02/05 07:14:28;;;;;;;26.27;14.20;;;;;;;3.50;48.62;99474.34;3400683;29;20162;-75
2022/02/05 07:16:17;;;;;;;27.35;15.65;;;;;;;3.49;48.65;99477.97;3402590;29;20454;-77
2022/02/05 07:20:00;;;;;;;26.65;14.52;;;;;;;3.46;48.45;99472.22;3402616;29;20134;-74
2022/02/05 07:21:46;;;;;;;29.25;14.40;;;;;;;3.49;48.36;99466.63;3402285;29;20138;-76
2022/02/05 07:29:52;;;;;;;31.98;15.30;;;;;;;3.50;48.29;99473.53;3404922;29;20051;-77
2022/02/05 07:31:33;;;;;;;29.00;16.08;;;;;;;3.48;48.10;99473.72;3405691;29;20505;-75
2022/02/05 07:33:14;;;;;;;26.90;15.32;;;;;;;3.50;47.96;99473.53;3403609;28;20035;-74
2022/02/05 07:34:55;;;;;;;27.98;15.27;;;;;;;3.48;48.07;99473.72;3403114;29;20047;-74
2022/02/05 07:36:35;;;;;;;31.67;14.93;;;;;;;3.50;48.12;99479.63;3403535;29;20076;-74
2022/02/05 07:38:16;;;;;;;27.65;13.93;;;;;;;3.53;48.11;99475.84;3403747;29;20115;-76
2022/02/05 07:39:57;;;;;;;27.40;15.90;;;;;;;3.56;47.91;99472.91;3405992;29;20152;-75
2022/02/05 07:41:40;;;;;;;26.02;14.45;;;;;;;3.62;47.98;99476.75;3404577;29;20035;-77
2022/02/05 07:43:26;;;;;;;28.85;16.00;;;;;;;3.63;47.88;99478.41;3405027;29;20134;-77
2022/02/05 07:45:08;;;;;;;25.77;14.18;;;;;;;3.66;47.89;99462.25;3404162;29;20832;-77
2022/02/05 07:46:51;;;;;;;27.73;16.40;;;;;;;3.69;47.77;99468.06;3399332;29;20126;-76
2022/02/05 07:48:32;;;;;;;27.92;14.05;;;;;;;3.69;47.76;99459.31;3403358;29;20047;-76
2022/02/05 07:50:12;;;;;;;27.45;16.23;;;;;;;3.74;48.01;99464.13;3403161;29;20040;-76
2022/02/05 07:51:53;;;;;;;30.33;16.60;;;;;;;3.76;47.77;99454.25;3403502;29;20050;-78
2022/02/05 07:53:35;;;;;;;25.33;15.20;;;;;;;3.80;47.77;99461.69;3390697;29;20161;-78
2022/02/05 07:55:16;;;;;;;24.30;13.50;;;;;;;3.80;47.46;99466.97;3399355;29;20400;-77
2022/02/05 07:57:00;;;;;;;31.00;16.73;;;;;;;3.82;47.52;99465.00;3401348;29;20043;-75
2022/02/05 07:58:41;;;;;;;23.95;14.73;;;;;;;3.82;47.50;99462.38;3405117;29;20175;-77
2022/02/05 08:00:21;;;;;;;28.70;16.83;;;;;;;3.82;47.53;99472.94;3390888;29;20040;-78
2022/02/05 08:02:02;;;;;;;27.50;14.18;;;;;;;3.85;47.51;99462.06;3402118;29;20039;-77
2022/02/05 08:03:43;;;;;;;23.33;13.45;;;;;;;3.88;47.29;99460.91;3403983;29;20043;-77
2022/02/05 08:05:24;;;;;;;26.65;15.13;;;;;;;3.87;47.33;99454.81;3404231;29;20055;-76
2022/02/05 08:07:07;;;;;;;24.15;13.38;;;;;;;3.93;47.23;99462.09;3406070;29;20406;-76
2022/02/05 08:08:50;;;;;;;22.92;14.13;;;;;;;3.99;47.33;99462.44;3390102;29;20052;-77
2022/02/05 08:10:36;;;;;;;26.33;15.63;;;;;;;3.97;47.33;99456.50;3397587;28;20546;-77
2022/02/05 08:12:18;;;;;;;28.42;15.90;;;;;;;3.99;47.55;99458.00;3388664;29;20194;-78
2022/02/05 08:14:05;;;;;;;28.30;15.02;;;;;;;3.96;47.22;99452.22;3401012;29;20062;-78
2022/02/05 08:15:54;;;;;;;29.63;15.50;;;;;;;3.98;47.10;99451.09;3403370;29;20051;-78
2022/02/05 08:17:36;;;;;;;30.38;15.63;;;;;;;4.01;47.07;99453.41;3400749;29;20043;-76
2022/02/05 08:19:17;;;;;;;27.15;16.42;;;;;;;4.01;47.07;99461.31;3403698;29;20610;-77
2022/02/05 08:20:58;;;;;;;22.98;14.88;;;;;;;4.02;47.06;99452.41;3404141;29;20059;-76
2022/02/05 08:22:38;;;;;;;29.67;15.50;;;;;;;4.00;47.17;99443.00;3402411;29;20035;-77
2022/02/05 08:24:19;;;;;;;31.80;16.35;;;;;;;4.03;46.92;99450.63;3402414;29;20039;-76
2022/02/05 08:26:00;;;;;;;24.13;14.00;;;;;;;4.00;47.22;99441.22;3402812;29;20047;-76
2022/02/05 08:27:41;;;;;;;30.90;15.25;;;;;;;4.03;46.99;99445.34;3403483;29;20134;-78
2022/02/05 08:29:22;;;;;;;26.27;15.60;;;;;;;4.03;47.21;99432.16;3402415;28;20044;-78
2022/02/05 08:31:04;;;;;;;28.65;15.65;;;;;;;4.06;46.96;99432.66;3399604;29;20114;-79
2022/02/05 08:32:45;;;;;;;26.13;13.68;;;;;;;4.11;47.32;99434.81;3402416;29;20042;-78
2022/02/05 08:34:26;;;;;;;22.65;13.05;;;;;;;4.12;46.89;99425.91;3389288;29;20039;-77
2022/02/05 08:36:07;;;;;;;27.17;14.60;;;;;;;4.15;46.96;99431.69;3400219;29;20051;-76
2022/02/05 08:37:48;;;;;;;26.05;14.20;;;;;;;4.14;46.83;99432.69;3402963;29;20110;-77
2022/02/05 08:39:29;;;;;;;27.25;15.98;;;;;;;4.12;46.69;99432.00;3403526;29;20047;-79
2022/02/05 08:41:10;;;;;;;23.80;14.73;;;;;;;4.09;46.59;99434.16;3401216;29;20067;-77
2022/02/05 08:42:50;;;;;;;22.80;13.65;;;;;;;4.08;46.43;99435.13;3402616;29;20500;-75
2022/02/05 08:44:32;;;;;;;22.17;12.82;;;;;;;4.08;46.79;99432.47;3401872;29;20047;-77
2022/02/05 08:46:13;;;;;;;20.20;13.93;;;;;;;4.08;46.49;99427.19;3386965;29;20138;-78
2022/02/05 08:47:54;;;;;;;26.90;14.70;;;;;;;4.10;46.59;99427.88;3396059;29;20059;-79
2022/02/05 08:49:35;;;;;;;23.40;13.68;;;;;;;4.10;46.74;99428.69;3401625;29;20062;-77
2022/02/05 08:51:15;;;;;;;27.88;15.68;;;;;;;4.08;46.70;99417.50;3402496;29;20047;-78
2022/02/05 08:52:57;;;;;;;21.35;13.68;;;;;;;4.06;46.64;99416.00;3402207;29;20448;-76
2022/02/05 08:54:39;;;;;;;21.52;12.70;;;;;;;4.11;46.52;99408.44;3402634;29;20063;-76
2022/02/05 08:56:22;;;;;;;20.75;12.75;;;;;;;4.16;46.51;99411.44;3402602;29;20131;-76
2022/02/05 08:58:08;;;;;;;16.92;12.10;;;;;;;4.20;46.27;99406.66;3402280;28;20108;-77
2022/02/05 08:59:57;;;;;;;19.98;12.48;;;;;;;4.21;46.31;99393.31;3402202;29;20071;-78
2022/02/05 09:07:21;;;;;;;20.60;11.32;;;;;;;4.52;46.03;99390.09;3402730;29;20095;-77
2022/02/05 09:09:16;;;;;;;22.45;11.57;;;;;;;4.60;45.78;99384.81;3403145;29;20055;-76
2022/02/05 09:13:12;;;;;;;16.05;10.13;;;;;;;4.90;45.44;99382.50;3389015;29;20039;-77
2022/02/05 09:14:54;;;;;;;16.95;9.82;;;;;;;5.07;45.03;99378.84;3387660;29;20372;-75
2022/02/05 09:16:35;;;;;;;22.10;12.93;;;;;;;5.30;44.59;99372.91;3388733;29;20122;-74
2022/02/05 09:18:16;;;;;;;24.98;13.18;;;;;;;5.94;43.90;99384.28;3398015;29;20138;-75
2022/02/05 09:19:57;;;;;;;22.00;11.95;;;;;;;6.80;42.92;99377.13;3399525;29;20038;-75
2022/02/05 09:21:38;;;;;;;17.85;11.70;;;;;;;7.66;42.22;99380.28;3400060;29;20035;-73
2022/02/05 09:23:18;;;;;;;17.98;11.48;;;;;;;8.46;41.36;99371.44;3400991;29;20133;-73
2022/02/05 09:24:59;;;;;;;21.50;12.73;;;;;;;9.18;40.32;99362.47;3426726;28;20030;-74
2022/02/05 09:26:46;;;;;;;19.05;11.25;;;;;;;9.86;39.31;99375.19;3395512;28;20049;-73
2022/02/05 09:28:29;;;;;;;15.88;11.32;;;;;;;10.55;38.91;99365.38;3387602;29;20096;-77
2022/02/05 09:30:14;;;;;;;21.58;11.50;;;;;;;11.10;38.96;99353.53;3387125;29;20076;-74
2022/02/05 09:31:55;;;;;;;18.73;11.07;;;;;;;11.76;38.88;99359.78;3387499;29;20102;-77
2022/02/05 09:33:38;;;;;;;16.88;10.60;;;;;;;12.19;37.83;99344.00;3389078;29;20084;-77
2022/02/05 09:35:19;;;;;;;18.98;11.43;;;;;;;12.42;37.17;99318.59;3388542;29;20048;-75
2022/02/05 09:37:01;;;;;;;15.43;10.60;;;;;;;12.90;36.47;99339.41;3392478;29;20035;-77
2022/02/05 09:38:50;;;;;;;14.50;10.05;;;;;;;13.19;35.83;99331.75;3397711;29;20047;-77
2022/02/05 09:40:32;;;;;;;16.27;11.18;;;;;;;13.44;35.63;99321.88;3395381;28;20042;-78
2022/02/05 09:42:15;;;;;;;18.08;10.40;;;;;;;13.87;35.50;99338.91;3395510;29;20135;-77
2022/02/05 09:43:56;;;;;;;17.73;12.52;;;;;;;14.04;35.25;99314.97;3397925;29;20044;-76
2022/02/05 09:45:38;;;;;;;15.80;10.77;;;;;;;14.46;35.02;99337.31;3396660;29;20050;-75
2022/02/05 09:47:23;;;;;;;14.68;10.38;;;;;;;14.71;35.37;99330.97;3394374;29;20052;-77
2022/02/05 09:49:04;;;;;;;14.75;10.75;;;;;;;14.59;34.77;99329.09;3391619;29;20066;-78
2022/02/05 09:50:47;;;;;;;16.15;10.63;;;;;;;14.31;34.48;99328.84;3385539;29;20610;-72
2022/02/05 09:52:29;;;;;;;15.82;10.73;;;;;;;13.90;34.58;99322.38;3378689;29;20420;-72
2022/02/05 09:54:09;;;;;;;15.05;11.07;;;;;;;13.43;34.46;99312.22;3393520;29;20055;-73
2022/02/05 09:55:50;;;;;;;12.90;10.50;;;;;;;13.00;34.38;99318.34;3393337;29;20415;-74
2022/02/05 09:57:31;;;;;;;16.10;12.00;;;;;;;12.61;34.28;99308.81;3394294;29;20040;-72
2022/02/05 09:59:12;;;;;;;16.10;11.32;;;;;;;12.28;34.37;99314.38;3398597;29;20412;-73
2022/02/05 10:01:10;;;;;;;18.98;12.25;;;;;;;11.99;34.20;99305.91;3400352;29;20032;-73
2022/02/05 10:02:56;;;;;;;15.25;11.20;;;;;;;11.77;34.46;99308.84;3399414;29;20056;-73
2022/02/05 10:05:09;;;;;;;18.20;10.88;;;;;;;11.93;34.73;99301.41;3400411;29;20047;-72
2022/02/05 10:06:51;;;;;;;17.58;11.80;;;;;;;11.95;34.16;99302.84;3397522;29;21178;-71
2022/02/05 10:08:35;;;;;;;19.17;11.18;;;;;;;12.01;34.05;99295.81;3400550;29;20467;-74
2022/02/05 10:10:16;;;;;;;16.95;12.07;;;;;;;12.06;34.09;99292.53;3400424;29;20040;-73
2022/02/05 10:12:02;;;;;;;18.77;10.50;;;;;;;12.09;33.95;99295.56;3400614;29;20130;-70
2022/02/05 10:13:43;;;;;;;17.95;11.68;;;;;;;12.06;33.97;99288.00;3401198;29;20043;-74
2022/02/05 10:15:34;;;;;;;18.05;11.23;;;;;;;12.03;33.73;99290.25;3401481;29;20102;-73